createdAt,value
2023-10-23T00:01:56.787Z,98869.59
2023-10-23T00:04:24.678Z,98865.27
2023-10-23T00:06:52.571Z,98865.45
2023-10-23T00:09:20.262Z,98857.92
2023-10-23T00:11:48.072Z,98856.05
2023-10-23T00:14:15.674Z,98856.65
2023-10-23T00:16:43.288Z,98855.25
2023-10-23T00:19:10.900Z,98855.43
2023-10-23T00:21:38.683Z,98852.36
2023-10-23T00:24:06.730Z,98851.34
2023-10-23T00:26:34.467Z,98855.46
2023-10-23T00:29:03.078Z,98854.65
2023-10-23T00:31:30.735Z,98854.66
2023-10-23T00:33:58.685Z,98854.40
2023-10-23T00:36:26.356Z,98856.98
2023-10-23T00:38:54.036Z,98856.25
2023-10-23T00:41:21.623Z,98856.77
2023-10-23T00:43:51.601Z,98858.95
2023-10-23T00:46:22.716Z,98864.30
2023-10-23T00:48:50.598Z,98860.25
2023-10-23T00:51:18.313Z,98855.96
2023-10-23T00:53:48.200Z,98858.08
2023-10-23T00:56:15.779Z,98861.05
2023-10-23T00:58:46.370Z,98860.80
2023-10-23T01:01:14.478Z,98856.58
2023-10-23T01:03:43.037Z,98856.23
2023-10-23T01:06:16.222Z,98859.23
2023-10-23T01:08:44.344Z,98860.23
2023-10-23T01:11:12.113Z,98857.63
2023-10-23T01:13:39.854Z,98857.44
2023-10-23T01:16:08.441Z,98859.83
2023-10-23T01:18:36.278Z,98864.89
2023-10-23T01:21:04.118Z,98865.08
2023-10-23T01:23:34.458Z,98860.95
2023-10-23T01:26:04.192Z,98862.08
2023-10-23T01:28:31.942Z,98861.71
2023-10-23T01:30:59.814Z,98863.16
2023-10-23T01:33:27.347Z,98860.98
2023-10-23T01:35:54.987Z,98860.31
2023-10-23T01:38:22.753Z,98864.76
2023-10-23T01:40:50.272Z,98871.86
2023-10-23T01:43:18.028Z,98870.77
2023-10-23T01:45:45.649Z,98870.95
2023-10-23T01:48:13.305Z,98872.00
2023-10-23T01:50:41.898Z,98873.99
2023-10-23T01:53:09.847Z,98872.42
2023-10-23T01:55:38.442Z,98876.03
2023-10-23T01:58:06.421Z,98877.11
2023-10-23T02:00:34.100Z,98881.30
2023-10-23T02:03:02.061Z,98880.10
2023-10-23T02:05:29.813Z,98877.69
2023-10-23T02:07:57.487Z,98873.55
2023-10-23T02:10:25.085Z,98879.59
2023-10-23T02:12:52.846Z,98881.16
2023-10-23T02:15:20.570Z,98876.86
2023-10-23T02:17:49.041Z,98879.77
2023-10-23T02:20:16.953Z,98880.03
2023-10-23T02:22:44.701Z,98878.48
2023-10-23T02:25:12.205Z,98881.38
2023-10-23T02:27:40.597Z,98879.34
2023-10-23T02:30:08.840Z,98882.39
2023-10-23T02:32:36.537Z,98886.33
2023-10-23T02:35:04.516Z,98883.40
2023-10-23T02:37:32.230Z,98890.66
2023-10-23T02:40:00.092Z,98885.33
2023-10-23T02:42:27.654Z,98886.08
2023-10-23T02:44:55.433Z,98879.44
2023-10-23T02:47:23.051Z,98881.48
2023-10-23T02:49:50.757Z,98880.48
2023-10-23T02:52:18.496Z,98882.97
2023-10-23T02:54:46.138Z,98885.34
2023-10-23T02:57:14.059Z,98889.42
2023-10-23T02:59:48.063Z,98887.46
2023-10-23T03:02:16.240Z,98887.86
2023-10-23T03:04:44.001Z,98890.91
2023-10-23T03:07:12.804Z,98894.44
2023-10-23T03:09:40.796Z,98893.17
2023-10-23T03:12:08.731Z,98896.38
2023-10-23T03:14:36.390Z,98897.02
2023-10-23T03:17:04.351Z,98889.82
2023-10-23T03:19:31.924Z,98899.50
2023-10-23T03:21:59.439Z,98904.08
2023-10-23T03:24:27.066Z,98905.05
2023-10-23T03:26:54.751Z,98908.79
2023-10-23T03:29:22.670Z,98911.49
2023-10-23T03:31:53.598Z,98883.66
2023-10-23T03:34:21.287Z,98916.09
2023-10-23T03:36:48.861Z,98912.45
2023-10-23T03:39:17.306Z,98911.42
2023-10-23T03:41:45.034Z,98914.04
2023-10-23T03:44:12.575Z,98920.48
2023-10-23T03:46:41.745Z,98918.20
2023-10-23T03:49:09.499Z,98922.89
2023-10-23T03:51:37.096Z,98921.88
2023-10-23T03:54:04.920Z,98918.08
2023-10-23T03:56:32.461Z,98920.40
2023-10-23T03:59:01.980Z,98921.14
2023-10-23T04:01:29.797Z,98922.31
2023-10-23T04:03:59.768Z,98920.06
2023-10-23T04:06:27.567Z,98921.54
2023-10-23T04:08:55.193Z,98925.83
2023-10-23T04:11:23.721Z,98930.52
2023-10-23T04:13:51.308Z,98935.55
2023-10-23T04:16:19.229Z,98944.02
2023-10-23T04:18:47.562Z,98941.23
2023-10-23T04:21:15.072Z,98945.08
2023-10-23T04:23:42.698Z,98946.08
2023-10-23T04:26:10.257Z,98948.52
2023-10-23T04:28:38.190Z,98947.50
2023-10-23T04:31:06.381Z,98951.13
2023-10-23T04:33:34.181Z,98949.80
2023-10-23T04:36:02.010Z,98954.70
2023-10-23T04:38:30.030Z,98960.64
2023-10-23T04:43:16.163Z,98966.52
2023-10-23T04:45:43.982Z,98967.46
2023-10-23T04:48:11.927Z,98972.15
2023-10-23T04:50:40.006Z,98974.80
2023-10-23T04:53:07.946Z,98972.39
2023-10-23T04:55:35.922Z,98976.09
2023-10-23T04:58:03.845Z,98976.16
2023-10-23T05:00:31.783Z,98976.26
2023-10-23T05:02:59.599Z,98982.65
2023-10-23T05:05:27.264Z,98987.94
2023-10-23T05:07:55.059Z,98989.88
2023-10-23T05:10:22.720Z,98983.36
2023-10-23T05:12:51.180Z,98994.11
2023-10-23T05:15:19.244Z,98993.89
2023-10-23T05:17:46.905Z,98994.64
2023-10-23T05:20:14.817Z,98998.59
2023-10-23T05:22:42.464Z,99003.41
2023-10-23T05:25:10.622Z,99008.69
2023-10-23T05:27:38.620Z,99013.18
2023-10-23T05:30:08.231Z,99010.89
2023-10-23T05:32:36.530Z,99012.75
2023-10-23T05:35:05.528Z,99020.14
2023-10-23T05:37:36.782Z,99020.65
2023-10-23T05:40:08.241Z,99021.67
2023-10-23T05:42:35.936Z,99024.83
2023-10-23T05:45:04.470Z,99023.14
2023-10-23T05:47:32.277Z,99024.23
2023-10-23T05:49:59.886Z,99026.71
2023-10-23T05:52:27.595Z,99026.23
2023-10-23T05:54:55.363Z,99026.91
2023-10-23T05:57:23.134Z,99027.73
2023-10-23T05:59:53.287Z,99029.90
2023-10-23T06:02:21.017Z,99027.72
2023-10-23T06:04:51.237Z,99028.22
2023-10-23T06:07:19.428Z,99028.75
2023-10-23T06:09:47.415Z,99035.83
2023-10-23T06:12:16.188Z,99034.95
2023-10-23T06:14:44.085Z,99035.79
2023-10-23T06:17:11.898Z,99033.84
2023-10-23T06:19:39.620Z,99039.15
2023-10-23T06:22:07.486Z,99040.48
2023-10-23T06:24:35.220Z,99046.01
2023-10-23T06:27:02.889Z,99045.87
2023-10-23T06:29:30.822Z,99048.90
2023-10-23T06:31:59.364Z,99055.86
2023-10-23T06:34:28.309Z,99061.56
2023-10-23T06:36:57.950Z,99056.21
2023-10-23T06:39:26.886Z,99057.70
2023-10-23T06:41:54.584Z,99055.33
2023-10-23T16:59:33.149Z,99352.52
2023-10-23T17:02:01.326Z,99351.92
2023-10-23T17:04:29.008Z,99350.42
2023-10-23T17:06:57.104Z,99350.17
2023-10-23T17:09:24.854Z,99350.03
2023-10-23T17:11:53.072Z,99353.38
2023-10-23T17:14:20.978Z,99353.10
2023-10-23T17:16:48.882Z,99358.58
2023-10-23T17:19:16.683Z,99362.88
2023-10-23T17:21:44.527Z,99369.40
2023-10-23T17:24:12.445Z,99377.72
2023-10-23T17:26:40.075Z,99379.96
2023-10-23T17:29:07.847Z,99378.02
2023-10-23T17:31:35.944Z,99376.05
2023-10-23T17:34:04.130Z,99378.41
2023-10-23T17:36:33.636Z,99377.79
2023-10-23T17:39:01.504Z,99376.35
2023-10-23T17:41:29.220Z,99379.99
2023-10-23T17:43:56.965Z,99378.95
2023-10-23T17:46:25.006Z,99380.02
2023-10-23T17:48:52.927Z,99386.77
2023-10-23T17:51:20.848Z,99388.70
2023-10-23T17:56:19.171Z,99386.92
2023-10-23T17:58:47.066Z,99385.08
2023-10-23T18:01:15.307Z,99385.46
2023-10-23T18:03:43.095Z,99391.63
2023-10-23T18:06:11.832Z,99387.74
2023-10-23T18:08:39.866Z,99391.45
2023-10-23T18:11:11.490Z,99391.23
2023-10-23T18:13:40.648Z,99394.16
2023-10-23T18:16:09.462Z,99398.07
2023-10-23T18:18:37.049Z,99396.81
2023-10-23T18:21:05.385Z,99399.92
2023-10-23T18:23:33.196Z,99397.76
2023-10-23T18:26:01.105Z,99403.90
2023-10-23T18:28:29.639Z,99405.34
2023-10-23T18:31:00.759Z,99407.31
2023-10-23T18:33:29.135Z,99409.63
2023-10-23T18:36:02.624Z,99408.11
2023-10-23T18:38:30.920Z,99409.26
2023-10-23T18:40:58.669Z,99413.48
2023-10-23T18:43:28.456Z,99416.67
2023-10-23T18:45:56.848Z,99418.48
2023-10-23T18:48:24.588Z,99422.92
2023-10-23T18:50:59.585Z,99421.96
2023-10-23T18:53:27.287Z,99415.23
2023-10-23T18:55:54.977Z,99417.60
2023-10-23T18:58:23.946Z,99417.92
2023-10-23T19:00:52.669Z,99415.71
2023-10-23T19:03:20.642Z,99412.36
2023-10-23T19:05:49.164Z,99413.44
2023-10-23T19:08:16.800Z,99410.77
2023-10-23T19:10:44.493Z,99411.23
2023-10-23T19:13:15.121Z,99413.08
2023-10-23T19:15:43.761Z,99417.84
2023-10-23T19:18:11.368Z,99419.84
2023-10-23T19:20:39.758Z,99414.23
2023-10-23T19:23:08.604Z,99419.09
2023-10-23T19:25:36.472Z,99419.27
2023-10-23T19:28:05.309Z,99419.64
2023-10-23T19:30:33.562Z,99422.88
2023-10-23T19:33:01.656Z,99427.34
2023-10-23T19:35:30.195Z,99428.44
2023-10-23T19:37:58.298Z,99425.66
2023-10-23T19:40:26.106Z,99427.70
2023-10-23T19:42:54.075Z,99429.82
2023-10-23T19:45:21.924Z,99431.04
2023-10-23T19:47:50.162Z,99431.64
2023-10-23T19:50:18.469Z,99430.79
2023-10-23T19:52:46.571Z,99430.91
2023-10-23T19:55:44.279Z,99435.61
2023-10-23T19:58:04.278Z,99440.96
2023-10-23T20:00:32.040Z,99443.70
2023-10-23T20:02:59.732Z,99445.20
2023-10-23T20:05:29.730Z,99444.52
2023-10-23T20:07:58.900Z,99448.05
2023-10-23T20:10:26.874Z,99446.77
2023-10-23T20:12:55.074Z,99450.25
2023-10-23T20:15:27.806Z,99452.48
2023-10-23T20:17:56.334Z,99456.77
2023-10-23T20:20:24.547Z,99455.23
2023-10-23T20:22:52.234Z,99454.65
2023-10-23T20:25:20.007Z,99459.20
2023-10-23T20:27:47.643Z,99459.70
2023-10-23T20:30:15.520Z,99450.66
2023-10-23T20:32:43.153Z,99449.67
2023-10-23T20:35:10.689Z,99449.33
2023-10-23T20:37:38.384Z,99449.14
2023-10-23T20:40:08.320Z,99452.40
2023-10-23T20:42:39.245Z,99452.91
2023-10-23T20:45:07.990Z,99451.75
2023-10-23T20:47:36.102Z,99452.31
2023-10-23T20:50:04.360Z,99451.01
2023-10-23T20:52:32.370Z,99451.81
2023-10-23T20:55:00.834Z,99456.35
2023-10-23T20:57:28.673Z,99453.13
2023-10-23T20:59:56.269Z,99450.42
2023-10-23T21:02:24.220Z,99451.46
2023-10-23T21:04:51.939Z,99450.57
2023-10-23T21:07:19.735Z,99455.65
2023-10-23T21:09:47.649Z,99455.45
2023-10-23T21:12:15.668Z,99448.02
2023-10-23T21:14:50.264Z,99453.17
